sensor_id;sensor_type;location;lat;lon;timestamp;P1;durP1;ratioP1;P2;durP2;ratioP2
51949;SDS011;37974;53.218;6.640;2023-07-31T00:02:14;7.28;;;3.10;;
51949;SDS011;37974;53.218;6.640;2023-07-31T00:04:40;5.72;;;3.50;;
51949;SDS011;37974;53.218;6.640;2023-07-31T00:07:05;7.10;;;3.53;;
51949;SDS011;37974;53.218;6.640;2023-07-31T00:09:34;5.13;;;3.33;;
51949;SDS011;37974;53.218;6.640;2023-07-31T00:12:00;5.88;;;3.50;;
51949;SDS011;37974;53.218;6.640;2023-07-31T00:14:26;7.97;;;3.45;;
51949;SDS011;37974;53.218;6.640;2023-07-31T00:16:51;8.40;;;3.30;;
51949;SDS011;37974;53.218;6.640;2023-07-31T00:19:17;6.25;;;3.28;;
51949;SDS011;37974;53.218;6.640;2023-07-31T00:21:44;7.13;;;3.25;;
51949;SDS011;37974;53.218;6.640;2023-07-31T00:24:09;6.03;;;3.40;;
51949;SDS011;37974;53.218;6.640;2023-07-31T00:26:35;6.65;;;3.42;;
51949;SDS011;37974;53.218;6.640;2023-07-31T00:29:01;4.85;;;2.92;;
51949;SDS011;37974;53.218;6.640;2023-07-31T00:31:27;6.45;;;3.75;;
51949;SDS011;37974;53.218;6.640;2023-07-31T00:33:52;6.60;;;3.42;;
51949;SDS011;37974;53.218;6.640;2023-07-31T00:36:18;5.63;;;2.90;;
51949;SDS011;37974;53.218;6.640;2023-07-31T00:38:44;5.85;;;3.53;;
51949;SDS011;37974;53.218;6.640;2023-07-31T00:41:09;5.90;;;3.42;;
51949;SDS011;37974;53.218;6.640;2023-07-31T00:43:35;11.23;;;3.63;;
51949;SDS011;37974;53.218;6.640;2023-07-31T00:46:01;6.78;;;3.35;;
51949;SDS011;37974;53.218;6.640;2023-07-31T00:48:26;6.80;;;3.60;;
51949;SDS011;37974;53.218;6.640;2023-07-31T00:50:53;5.90;;;3.72;;
51949;SDS011;37974;53.218;6.640;2023-07-31T00:53:19;7.45;;;3.42;;
51949;SDS011;37974;53.218;6.640;2023-07-31T00:55:44;7.85;;;3.83;;
51949;SDS011;37974;53.218;6.640;2023-07-31T00:58:10;7.53;;;3.70;;
51949;SDS011;37974;53.218;6.640;2023-07-31T01:00:36;6.28;;;3.38;;
51949;SDS011;37974;53.218;6.640;2023-07-31T01:03:02;6.75;;;4.28;;
51949;SDS011;37974;53.218;6.640;2023-07-31T01:05:48;6.00;;;3.95;;
51949;SDS011;37974;53.218;6.640;2023-07-31T01:11:19;10.40;;;4.93;;
51949;SDS011;37974;53.218;6.640;2023-07-31T01:13:56;6.73;;;4.57;;
51949;SDS011;37974;53.218;6.640;2023-07-31T01:16:23;5.82;;;3.90;;
51949;SDS011;37974;53.218;6.640;2023-07-31T01:18:50;8.10;;;3.33;;
51949;SDS011;37974;53.218;6.640;2023-07-31T01:27:05;5.97;;;2.90;;
51949;SDS011;37974;53.218;6.640;2023-07-31T01:32:12;7.72;;;2.97;;
51949;SDS011;37974;53.218;6.640;2023-07-31T01:34:39;4.50;;;2.60;;
51949;SDS011;37974;53.218;6.640;2023-07-31T01:37:07;4.55;;;2.00;;
51949;SDS011;37974;53.218;6.640;2023-07-31T01:39:32;5.15;;;2.10;;
51949;SDS011;37974;53.218;6.640;2023-07-31T01:41:58;10.43;;;3.00;;
51949;SDS011;37974;53.218;6.640;2023-07-31T01:44:23;5.20;;;3.00;;
51949;SDS011;37974;53.218;6.640;2023-07-31T01:46:49;6.63;;;2.90;;
51949;SDS011;37974;53.218;6.640;2023-07-31T01:49:15;3.88;;;2.33;;
51949;SDS011;37974;53.218;6.640;2023-07-31T01:51:40;4.30;;;2.00;;
51949;SDS011;37974;53.218;6.640;2023-07-31T01:54:06;5.07;;;2.75;;
51949;SDS011;37974;53.218;6.640;2023-07-31T01:56:32;4.15;;;2.63;;
51949;SDS011;37974;53.218;6.640;2023-07-31T01:58:58;5.50;;;3.15;;
51949;SDS011;37974;53.218;6.640;2023-07-31T02:01:23;7.70;;;2.10;;
51949;SDS011;37974;53.218;6.640;2023-07-31T02:03:49;4.68;;;2.42;;
51949;SDS011;37974;53.218;6.640;2023-07-31T02:06:15;3.95;;;1.90;;
51949;SDS011;37974;53.218;6.640;2023-07-31T02:08:40;5.00;;;2.45;;
51949;SDS011;37974;53.218;6.640;2023-07-31T02:11:06;5.15;;;3.35;;
51949;SDS011;37974;53.218;6.640;2023-07-31T02:13:31;5.50;;;2.60;;
51949;SDS011;37974;53.218;6.640;2023-07-31T02:15:57;4.25;;;2.55;;
51949;SDS011;37974;53.218;6.640;2023-07-31T02:18:23;9.35;;;3.40;;
51949;SDS011;37974;53.218;6.640;2023-07-31T02:20:52;8.43;;;3.20;;
51949;SDS011;37974;53.218;6.640;2023-07-31T02:23:18;5.93;;;2.92;;
51949;SDS011;37974;53.218;6.640;2023-07-31T02:25:44;5.88;;;2.03;;
51949;SDS011;37974;53.218;6.640;2023-07-31T02:28:10;7.15;;;2.60;;
51949;SDS011;37974;53.218;6.640;2023-07-31T02:30:36;4.30;;;1.80;;
51949;SDS011;37974;53.218;6.640;2023-07-31T02:33:03;3.65;;;1.60;;
51949;SDS011;37974;53.218;6.640;2023-07-31T02:35:30;5.88;;;1.83;;
51949;SDS011;37974;53.218;6.640;2023-07-31T02:37:55;4.38;;;1.50;;
51949;SDS011;37974;53.218;6.640;2023-07-31T02:40:21;3.67;;;1.98;;
51949;SDS011;37974;53.218;6.640;2023-07-31T02:42:47;4.18;;;2.10;;
51949;SDS011;37974;53.218;6.640;2023-07-31T02:45:13;4.68;;;2.47;;
51949;SDS011;37974;53.218;6.640;2023-07-31T02:47:38;6.30;;;2.28;;
51949;SDS011;37974;53.218;6.640;2023-07-31T02:50:04;3.72;;;2.20;;
51949;SDS011;37974;53.218;6.640;2023-07-31T02:52:30;4.70;;;2.33;;
51949;SDS011;37974;53.218;6.640;2023-07-31T02:54:56;5.05;;;1.65;;
51949;SDS011;37974;53.218;6.640;2023-07-31T02:57:22;3.88;;;1.50;;
51949;SDS011;37974;53.218;6.640;2023-07-31T02:59:48;3.08;;;1.40;;
51949;SDS011;37974;53.218;6.640;2023-07-31T03:02:14;3.17;;;1.40;;
51949;SDS011;37974;53.218;6.640;2023-07-31T03:04:40;4.13;;;1.50;;
51949;SDS011;37974;53.218;6.640;2023-07-31T03:07:05;2.75;;;1.50;;
51949;SDS011;37974;53.218;6.640;2023-07-31T03:09:31;4.30;;;1.50;;
51949;SDS011;37974;53.218;6.640;2023-07-31T03:11:57;7.65;;;1.77;;
51949;SDS011;37974;53.218;6.640;2023-07-31T03:14:22;3.55;;;1.40;;
51949;SDS011;37974;53.218;6.640;2023-07-31T03:16:48;5.53;;;1.63;;
51949;SDS011;37974;53.218;6.640;2023-07-31T03:19:14;8.65;;;1.83;;
51949;SDS011;37974;53.218;6.640;2023-07-31T03:21:40;4.40;;;1.50;;
51949;SDS011;37974;53.218;6.640;2023-07-31T03:24:05;4.40;;;1.80;;
51949;SDS011;37974;53.218;6.640;2023-07-31T03:26:31;3.10;;;1.30;;
51949;SDS011;37974;53.218;6.640;2023-07-31T03:28:58;5.30;;;1.15;;
51949;SDS011;37974;53.218;6.640;2023-07-31T03:31:23;3.15;;;1.30;;
51949;SDS011;37974;53.218;6.640;2023-07-31T03:33:49;4.05;;;1.38;;
51949;SDS011;37974;53.218;6.640;2023-07-31T03:36:15;3.50;;;1.40;;
51949;SDS011;37974;53.218;6.640;2023-07-31T03:38:40;3.85;;;1.20;;
51949;SDS011;37974;53.218;6.640;2023-07-31T03:41:06;3.25;;;1.08;;
51949;SDS011;37974;53.218;6.640;2023-07-31T03:43:32;6.65;;;1.33;;
51949;SDS011;37974;53.218;6.640;2023-07-31T03:46:01;2.85;;;1.20;;
51949;SDS011;37974;53.218;6.640;2023-07-31T03:48:27;3.05;;;1.20;;
51949;SDS011;37974;53.218;6.640;2023-07-31T03:50:53;3.00;;;1.50;;
51949;SDS011;37974;53.218;6.640;2023-07-31T03:53:19;2.88;;;1.20;;
51949;SDS011;37974;53.218;6.640;2023-07-31T03:55:45;5.03;;;1.38;;
51949;SDS011;37974;53.218;6.640;2023-07-31T03:58:10;3.85;;;1.38;;
51949;SDS011;37974;53.218;6.640;2023-07-31T04:00:36;4.75;;;1.40;;
51949;SDS011;37974;53.218;6.640;2023-07-31T04:03:02;5.07;;;1.55;;
51949;SDS011;37974;53.218;6.640;2023-07-31T04:05:30;6.30;;;2.20;;
51949;SDS011;37974;53.218;6.640;2023-07-31T04:07:57;7.43;;;3.20;;
51949;SDS011;37974;53.218;6.640;2023-07-31T04:10:22;8.13;;;3.47;;
51949;SDS011;37974;53.218;6.640;2023-07-31T04:12:48;6.15;;;3.65;;
51949;SDS011;37974;53.218;6.640;2023-07-31T04:15:14;7.95;;;3.90;;
51949;SDS011;37974;53.218;6.640;2023-07-31T04:17:40;9.20;;;4.32;;
51949;SDS011;37974;53.218;6.640;2023-07-31T04:20:06;10.93;;;4.53;;
51949;SDS011;37974;53.218;6.640;2023-07-31T04:22:32;18.70;;;3.15;;
51949;SDS011;37974;53.218;6.640;2023-07-31T04:24:57;4.25;;;1.70;;
51949;SDS011;37974;53.218;6.640;2023-07-31T04:27:23;6.90;;;1.55;;
51949;SDS011;37974;53.218;6.640;2023-07-31T04:29:49;4.70;;;1.33;;
51949;SDS011;37974;53.218;6.640;2023-07-31T04:32:16;4.53;;;1.30;;
51949;SDS011;37974;53.218;6.640;2023-07-31T04:34:42;4.30;;;1.10;;
51949;SDS011;37974;53.218;6.640;2023-07-31T04:37:08;8.18;;;1.40;;
51949;SDS011;37974;53.218;6.640;2023-07-31T04:39:33;2.22;;;1.00;;
51949;SDS011;37974;53.218;6.640;2023-07-31T04:41:59;3.65;;;1.50;;
51949;SDS011;37974;53.218;6.640;2023-07-31T04:44:25;5.00;;;1.10;;
51949;SDS011;37974;53.218;6.640;2023-07-31T04:46:50;4.20;;;1.02;;
51949;SDS011;37974;53.218;6.640;2023-07-31T04:49:16;3.05;;;0.90;;
51949;SDS011;37974;53.218;6.640;2023-07-31T04:51:42;5.32;;;0.70;;
51949;SDS011;37974;53.218;6.640;2023-07-31T04:54:07;4.03;;;1.30;;
51949;SDS011;37974;53.218;6.640;2023-07-31T04:56:33;5.25;;;1.60;;
51949;SDS011;37974;53.218;6.640;2023-07-31T04:58:59;6.18;;;1.73;;
51949;SDS011;37974;53.218;6.640;2023-07-31T05:01:25;4.38;;;2.05;;
51949;SDS011;37974;53.218;6.640;2023-07-31T05:03:50;4.45;;;1.50;;
51949;SDS011;37974;53.218;6.640;2023-07-31T05:06:16;5.65;;;1.30;;
51949;SDS011;37974;53.218;6.640;2023-07-31T05:08:42;2.28;;;0.70;;
51949;SDS011;37974;53.218;6.640;2023-07-31T05:11:08;2.45;;;0.75;;
51949;SDS011;37974;53.218;6.640;2023-07-31T05:13:33;1.15;;;0.45;;
51949;SDS011;37974;53.218;6.640;2023-07-31T05:15:59;6.97;;;1.20;;
51949;SDS011;37974;53.218;6.640;2023-07-31T05:18:24;3.00;;;0.57;;
51949;SDS011;37974;53.218;6.640;2023-07-31T05:20:50;6.68;;;0.75;;
51949;SDS011;37974;53.218;6.640;2023-07-31T05:23:16;4.95;;;0.80;;
51949;SDS011;37974;53.218;6.640;2023-07-31T05:25:42;7.43;;;0.77;;
51949;SDS011;37974;53.218;6.640;2023-07-31T05:28:07;3.33;;;0.55;;
51949;SDS011;37974;53.218;6.640;2023-07-31T05:30:33;3.38;;;0.50;;
51949;SDS011;37974;53.218;6.640;2023-07-31T05:32:59;4.13;;;0.40;;
51949;SDS011;37974;53.218;6.640;2023-07-31T05:35:24;5.25;;;0.47;;
51949;SDS011;37974;53.218;6.640;2023-07-31T05:37:50;3.88;;;0.40;;
51949;SDS011;37974;53.218;6.640;2023-07-31T05:40:16;5.05;;;0.50;;
51949;SDS011;37974;53.218;6.640;2023-07-31T05:42:41;1.90;;;0.50;;
51949;SDS011;37974;53.218;6.640;2023-07-31T05:45:07;2.72;;;0.60;;
51949;SDS011;37974;53.218;6.640;2023-07-31T05:47:33;3.58;;;0.70;;
51949;SDS011;37974;53.218;6.640;2023-07-31T05:49:59;5.75;;;0.80;;
51949;SDS011;37974;53.218;6.640;2023-07-31T05:52:25;3.60;;;1.08;;
51949;SDS011;37974;53.218;6.640;2023-07-31T05:54:50;6.25;;;1.48;;
51949;SDS011;37974;53.218;6.640;2023-07-31T05:57:16;4.38;;;1.73;;
51949;SDS011;37974;53.218;6.640;2023-07-31T05:59:42;5.97;;;1.80;;
51949;SDS011;37974;53.218;6.640;2023-07-31T06:02:08;3.15;;;0.80;;
51949;SDS011;37974;53.218;6.640;2023-07-31T06:04:33;1.65;;;0.70;;
51949;SDS011;37974;53.218;6.640;2023-07-31T06:06:59;3.22;;;1.00;;
51949;SDS011;37974;53.218;6.640;2023-07-31T06:09:25;3.60;;;0.90;;
51949;SDS011;37974;53.218;6.640;2023-07-31T06:11:51;3.25;;;1.20;;
51949;SDS011;37974;53.218;6.640;2023-07-31T06:14:17;4.68;;;1.60;;
51949;SDS011;37974;53.218;6.640;2023-07-31T06:16:44;3.10;;;1.30;;
51949;SDS011;37974;53.218;6.640;2023-07-31T06:19:10;8.20;;;1.60;;
51949;SDS011;37974;53.218;6.640;2023-07-31T06:21:36;8.88;;;2.00;;
51949;SDS011;37974;53.218;6.640;2023-07-31T06:24:07;7.00;;;2.05;;
51949;SDS011;37974;53.218;6.640;2023-07-31T06:26:33;6.68;;;2.05;;
51949;SDS011;37974;53.218;6.640;2023-07-31T06:28:58;9.30;;;2.58;;
51949;SDS011;37974;53.218;6.640;2023-07-31T06:31:24;8.00;;;2.72;;
51949;SDS011;37974;53.218;6.640;2023-07-31T06:33:50;12.32;;;3.10;;
51949;SDS011;37974;53.218;6.640;2023-07-31T06:36:17;8.55;;;2.78;;
51949;SDS011;37974;53.218;6.640;2023-07-31T06:38:43;13.63;;;3.60;;
51949;SDS011;37974;53.218;6.640;2023-07-31T06:41:08;12.45;;;3.60;;
51949;SDS011;37974;53.218;6.640;2023-07-31T06:43:35;14.13;;;4.10;;
51949;SDS011;37974;53.218;6.640;2023-07-31T06:46:08;21.55;;;5.60;;
51949;SDS011;37974;53.218;6.640;2023-07-31T06:48:34;25.52;;;7.18;;
51949;SDS011;37974;53.218;6.640;2023-07-31T06:51:03;22.65;;;7.63;;
51949;SDS011;37974;53.218;6.640;2023-07-31T06:53:29;28.80;;;6.75;;
51949;SDS011;37974;53.218;6.640;2023-07-31T06:55:55;32.28;;;8.70;;
51949;SDS011;37974;53.218;6.640;2023-07-31T06:58:21;26.15;;;7.00;;
51949;SDS011;37974;53.218;6.640;2023-07-31T07:00:46;27.10;;;7.93;;
51949;SDS011;37974;53.218;6.640;2023-07-31T07:03:14;26.58;;;7.05;;
51949;SDS011;37974;53.218;6.640;2023-07-31T07:05:40;25.50;;;7.25;;
51949;SDS011;37974;53.218;6.640;2023-07-31T07:08:06;28.23;;;6.80;;
51949;SDS011;37974;53.218;6.640;2023-07-31T07:10:33;27.00;;;6.97;;
51949;SDS011;37974;53.218;6.640;2023-07-31T07:12:58;27.05;;;7.03;;
51949;SDS011;37974;53.218;6.640;2023-07-31T07:15:24;28.35;;;7.07;;
51949;SDS011;37974;53.218;6.640;2023-07-31T07:17:50;23.52;;;6.72;;
51949;SDS011;37974;53.218;6.640;2023-07-31T07:20:16;30.98;;;7.43;;
51949;SDS011;37974;53.218;6.640;2023-07-31T07:22:42;26.45;;;7.82;;
51949;SDS011;37974;53.218;6.640;2023-07-31T07:25:10;24.58;;;7.15;;
51949;SDS011;37974;53.218;6.640;2023-07-31T07:27:36;28.48;;;8.20;;
51949;SDS011;37974;53.218;6.640;2023-07-31T07:30:01;27.08;;;8.32;;
51949;SDS011;37974;53.218;6.640;2023-07-31T07:32:27;25.08;;;8.30;;
51949;SDS011;37974;53.218;6.640;2023-07-31T07:34:53;37.88;;;9.18;;
51949;SDS011;37974;53.218;6.640;2023-07-31T07:37:21;27.60;;;8.88;;
51949;SDS011;37974;53.218;6.640;2023-07-31T07:39:46;23.38;;;8.02;;
51949;SDS011;37974;53.218;6.640;2023-07-31T07:42:12;24.02;;;6.63;;
51949;SDS011;37974;53.218;6.640;2023-07-31T07:44:38;19.40;;;7.00;;
51949;SDS011;37974;53.218;6.640;2023-07-31T07:47:04;26.17;;;8.25;;
51949;SDS011;37974;53.218;6.640;2023-07-31T07:49:32;26.23;;;7.95;;
51949;SDS011;37974;53.218;6.640;2023-07-31T07:52:01;13.00;;;5.22;;
51949;SDS011;37974;53.218;6.640;2023-07-31T07:54:27;12.90;;;4.28;;
51949;SDS011;37974;53.218;6.640;2023-07-31T07:56:53;9.07;;;3.30;;
51949;SDS011;37974;53.218;6.640;2023-07-31T07:59:19;13.25;;;3.13;;
51949;SDS011;37974;53.218;6.640;2023-07-31T08:01:45;10.20;;;2.85;;
51949;SDS011;37974;53.218;6.640;2023-07-31T08:04:10;6.38;;;2.20;;
51949;SDS011;37974;53.218;6.640;2023-07-31T08:06:36;7.35;;;2.70;;
51949;SDS011;37974;53.218;6.640;2023-07-31T08:09:02;5.20;;;1.77;;
51949;SDS011;37974;53.218;6.640;2023-07-31T08:11:34;5.30;;;1.80;;
51949;SDS011;37974;53.218;6.640;2023-07-31T08:14:00;7.97;;;2.05;;
51949;SDS011;37974;53.218;6.640;2023-07-31T08:16:26;4.32;;;1.58;;
51949;SDS011;37974;53.218;6.640;2023-07-31T08:18:52;6.15;;;2.00;;
51949;SDS011;37974;53.218;6.640;2023-07-31T08:21:17;6.95;;;2.13;;
51949;SDS011;37974;53.218;6.640;2023-07-31T08:23:43;4.85;;;1.52;;
51949;SDS011;37974;53.218;6.640;2023-07-31T08:26:14;4.90;;;1.73;;
51949;SDS011;37974;53.218;6.640;2023-07-31T08:28:43;7.05;;;2.35;;
51949;SDS011;37974;53.218;6.640;2023-07-31T08:31:09;6.32;;;2.65;;
51949;SDS011;37974;53.218;6.640;2023-07-31T08:33:35;4.53;;;1.80;;
51949;SDS011;37974;53.218;6.640;2023-07-31T08:36:02;4.43;;;1.70;;
51949;SDS011;37974;53.218;6.640;2023-07-31T08:38:27;5.80;;;1.60;;
51949;SDS011;37974;53.218;6.640;2023-07-31T08:40:54;5.93;;;1.98;;
51949;SDS011;37974;53.218;6.640;2023-07-31T08:43:22;3.25;;;1.52;;
51949;SDS011;37974;53.218;6.640;2023-07-31T08:45:50;5.47;;;1.63;;
51949;SDS011;37974;53.218;6.640;2023-07-31T08:48:16;4.22;;;1.30;;
51949;SDS011;37974;53.218;6.640;2023-07-31T08:50:42;2.95;;;1.30;;
51949;SDS011;37974;53.218;6.640;2023-07-31T08:53:08;2.80;;;1.00;;
51949;SDS011;37974;53.218;6.640;2023-07-31T08:55:35;3.50;;;1.05;;
51949;SDS011;37974;53.218;6.640;2023-07-31T08:58:02;3.60;;;1.20;;
51949;SDS011;37974;53.218;6.640;2023-07-31T09:00:30;3.05;;;1.17;;
51949;SDS011;37974;53.218;6.640;2023-07-31T09:02:59;5.45;;;1.33;;
51949;SDS011;37974;53.218;6.640;2023-07-31T09:05:28;4.22;;;1.30;;
51949;SDS011;37974;53.218;6.640;2023-07-31T09:07:55;2.13;;;1.00;;
51949;SDS011;37974;53.218;6.640;2023-07-31T09:10:22;4.25;;;1.30;;
51949;SDS011;37974;53.218;6.640;2023-07-31T09:12:48;4.18;;;0.95;;
51949;SDS011;37974;53.218;6.640;2023-07-31T09:15:15;2.22;;;0.90;;
51949;SDS011;37974;53.218;6.640;2023-07-31T09:17:41;2.15;;;0.70;;
51949;SDS011;37974;53.218;6.640;2023-07-31T09:20:14;4.97;;;0.90;;
51949;SDS011;37974;53.218;6.640;2023-07-31T09:22:47;2.92;;;0.77;;
51949;SDS011;37974;53.218;6.640;2023-07-31T09:25:14;1.63;;;0.70;;
51949;SDS011;37974;53.218;6.640;2023-07-31T09:27:57;2.97;;;1.30;;
51949;SDS011;37974;53.218;6.640;2023-07-31T09:30:24;5.07;;;1.20;;
51949;SDS011;37974;53.218;6.640;2023-07-31T09:32:50;2.20;;;1.00;;
51949;SDS011;37974;53.218;6.640;2023-07-31T09:35:27;2.50;;;0.93;;
51949;SDS011;37974;53.218;6.640;2023-07-31T09:37:58;3.75;;;1.20;;
51949;SDS011;37974;53.218;6.640;2023-07-31T09:40:29;3.00;;;0.80;;
51949;SDS011;37974;53.218;6.640;2023-07-31T09:43:00;2.83;;;0.68;;
51949;SDS011;37974;53.218;6.640;2023-07-31T09:45:27;1.67;;;0.70;;
51949;SDS011;37974;53.218;6.640;2023-07-31T09:47:54;3.70;;;0.85;;
51949;SDS011;37974;53.218;6.640;2023-07-31T09:50:21;1.27;;;0.88;;
51949;SDS011;37974;53.218;6.640;2023-07-31T09:52:48;3.85;;;0.93;;
51949;SDS011;37974;53.218;6.640;2023-07-31T09:55:14;4.60;;;0.70;;
51949;SDS011;37974;53.218;6.640;2023-07-31T09:57:41;5.28;;;0.73;;
51949;SDS011;37974;53.218;6.640;2023-07-31T10:00:09;3.25;;;0.70;;
51949;SDS011;37974;53.218;6.640;2023-07-31T10:02:36;4.28;;;0.70;;
51949;SDS011;37974;53.218;6.640;2023-07-31T10:05:03;3.17;;;0.82;;
51949;SDS011;37974;53.218;6.640;2023-07-31T10:07:30;4.88;;;0.80;;
51949;SDS011;37974;53.218;6.640;2023-07-31T10:09:59;1.38;;;0.40;;
51949;SDS011;37974;53.218;6.640;2023-07-31T10:12:25;3.92;;;0.60;;
51949;SDS011;37974;53.218;6.640;2023-07-31T10:14:55;2.42;;;0.43;;
51949;SDS011;37974;53.218;6.640;2023-07-31T10:17:22;2.55;;;0.40;;
51949;SDS011;37974;53.218;6.640;2023-07-31T10:19:49;1.17;;;0.30;;
51949;SDS011;37974;53.218;6.640;2023-07-31T10:22:15;1.00;;;0.20;;
51949;SDS011;37974;53.218;6.640;2023-07-31T10:24:47;2.17;;;0.40;;
51949;SDS011;37974;53.218;6.640;2023-07-31T10:27:15;5.97;;;0.40;;
51949;SDS011;37974;53.218;6.640;2023-07-31T10:29:41;6.60;;;0.40;;
51949;SDS011;37974;53.218;6.640;2023-07-31T10:32:12;5.82;;;0.32;;
51949;SDS011;37974;53.218;6.640;2023-07-31T10:34:39;0.73;;;0.20;;
51949;SDS011;37974;53.218;6.640;2023-07-31T10:37:25;0.85;;;0.30;;
51949;SDS011;37974;53.218;6.640;2023-07-31T10:45:02;2.30;;;0.20;;
51949;SDS011;37974;53.218;6.640;2023-07-31T10:47:29;1.23;;;0.20;;
51949;SDS011;37974;53.218;6.640;2023-07-31T10:52:43;0.20;;;0.10;;
51949;SDS011;37974;53.218;6.640;2023-07-31T10:55:15;1.20;;;0.20;;
51949;SDS011;37974;53.218;6.640;2023-07-31T10:58:11;0.82;;;0.10;;
51949;SDS011;37974;53.218;6.640;2023-07-31T11:00:43;1.65;;;0.30;;
51949;SDS011;37974;53.218;6.640;2023-07-31T11:03:12;1.58;;;0.30;;
51949;SDS011;37974;53.218;6.640;2023-07-31T11:05:41;3.65;;;0.20;;
51949;SDS011;37974;53.218;6.640;2023-07-31T11:10:38;1.55;;;0.30;;
51949;SDS011;37974;53.218;6.640;2023-07-31T11:13:04;1.33;;;0.20;;
51949;SDS011;37974;53.218;6.640;2023-07-31T11:15:30;2.47;;;0.30;;
51949;SDS011;37974;53.218;6.640;2023-07-31T11:17:56;0.93;;;0.30;;
51949;SDS011;37974;53.218;6.640;2023-07-31T11:20:25;1.05;;;0.30;;
51949;SDS011;37974;53.218;6.640;2023-07-31T11:22:51;2.35;;;0.40;;
51949;SDS011;37974;53.218;6.640;2023-07-31T11:25:18;1.90;;;0.35;;
51949;SDS011;37974;53.218;6.640;2023-07-31T11:27:43;1.45;;;0.30;;
51949;SDS011;37974;53.218;6.640;2023-07-31T11:30:10;1.42;;;0.52;;
51949;SDS011;37974;53.218;6.640;2023-07-31T11:32:36;1.15;;;0.30;;
51949;SDS011;37974;53.218;6.640;2023-07-31T11:35:02;2.05;;;0.40;;
51949;SDS011;37974;53.218;6.640;2023-07-31T11:37:43;2.58;;;0.50;;
51949;SDS011;37974;53.218;6.640;2023-07-31T11:40:09;3.50;;;0.55;;
51949;SDS011;37974;53.218;6.640;2023-07-31T11:42:36;2.05;;;0.40;;
51949;SDS011;37974;53.218;6.640;2023-07-31T11:45:05;1.23;;;0.20;;
51949;SDS011;37974;53.218;6.640;2023-07-31T11:47:32;1.38;;;0.20;;
51949;SDS011;37974;53.218;6.640;2023-07-31T11:50:01;3.63;;;0.50;;
51949;SDS011;37974;53.218;6.640;2023-07-31T11:52:32;4.68;;;0.70;;
51949;SDS011;37974;53.218;6.640;2023-07-31T11:55:03;2.92;;;0.50;;
51949;SDS011;37974;53.218;6.640;2023-07-31T11:57:29;1.92;;;0.30;;
51949;SDS011;37974;53.218;6.640;2023-07-31T11:59:55;3.55;;;0.57;;
51949;SDS011;37974;53.218;6.640;2023-07-31T12:02:22;2.03;;;0.40;;
51949;SDS011;37974;53.218;6.640;2023-07-31T12:04:49;3.75;;;0.40;;
51949;SDS011;37974;53.218;6.640;2023-07-31T12:07:15;2.28;;;0.52;;
51949;SDS011;37974;53.218;6.640;2023-07-31T12:09:56;1.85;;;0.50;;
51949;SDS011;37974;53.218;6.640;2023-07-31T12:12:22;3.33;;;0.65;;
51949;SDS011;37974;53.218;6.640;2023-07-31T12:14:50;2.83;;;0.55;;
51949;SDS011;37974;53.218;6.640;2023-07-31T12:17:16;3.58;;;0.60;;
51949;SDS011;37974;53.218;6.640;2023-07-31T12:19:44;2.08;;;0.63;;
51949;SDS011;37974;53.218;6.640;2023-07-31T12:22:16;1.95;;;0.50;;
51949;SDS011;37974;53.218;6.640;2023-07-31T12:24:42;1.67;;;0.50;;
51949;SDS011;37974;53.218;6.640;2023-07-31T12:27:12;1.92;;;0.60;;
51949;SDS011;37974;53.218;6.640;2023-07-31T12:29:41;3.35;;;0.50;;
51949;SDS011;37974;53.218;6.640;2023-07-31T12:32:24;1.38;;;0.30;;
51949;SDS011;37974;53.218;6.640;2023-07-31T12:34:53;3.10;;;0.52;;
51949;SDS011;37974;53.218;6.640;2023-07-31T12:37:20;2.03;;;0.35;;
51949;SDS011;37974;53.218;6.640;2023-07-31T12:39:46;1.60;;;0.50;;
51949;SDS011;37974;53.218;6.640;2023-07-31T12:42:12;3.78;;;0.73;;
51949;SDS011;37974;53.218;6.640;2023-07-31T12:44:38;2.50;;;0.47;;
51949;SDS011;37974;53.218;6.640;2023-07-31T12:47:04;2.03;;;0.50;;
51949;SDS011;37974;53.218;6.640;2023-07-31T12:49:30;3.60;;;0.50;;
51949;SDS011;37974;53.218;6.640;2023-07-31T12:51:55;1.48;;;0.32;;
51949;SDS011;37974;53.218;6.640;2023-07-31T12:54:21;2.15;;;0.68;;
51949;SDS011;37974;53.218;6.640;2023-07-31T12:56:47;2.85;;;0.70;;
51949;SDS011;37974;53.218;6.640;2023-07-31T12:59:12;4.22;;;0.63;;
51949;SDS011;37974;53.218;6.640;2023-07-31T13:01:39;4.60;;;0.70;;
51949;SDS011;37974;53.218;6.640;2023-07-31T13:04:04;5.70;;;0.73;;
51949;SDS011;37974;53.218;6.640;2023-07-31T13:06:30;3.95;;;0.82;;
51949;SDS011;37974;53.218;6.640;2023-07-31T13:08:56;2.75;;;0.85;;
51949;SDS011;37974;53.218;6.640;2023-07-31T13:11:21;20.05;;;1.13;;
51949;SDS011;37974;53.218;6.640;2023-07-31T13:13:47;5.22;;;0.80;;
51949;SDS011;37974;53.218;6.640;2023-07-31T13:16:13;4.90;;;0.73;;
51949;SDS011;37974;53.218;6.640;2023-07-31T13:18:38;5.82;;;0.70;;
51949;SDS011;37974;53.218;6.640;2023-07-31T13:21:04;5.82;;;1.25;;
51949;SDS011;37974;53.218;6.640;2023-07-31T13:23:30;8.02;;;1.08;;
51949;SDS011;37974;53.218;6.640;2023-07-31T13:25:56;5.47;;;1.15;;
51949;SDS011;37974;53.218;6.640;2023-07-31T13:28:21;5.28;;;1.20;;
51949;SDS011;37974;53.218;6.640;2023-07-31T13:30:47;10.35;;;1.40;;
51949;SDS011;37974;53.218;6.640;2023-07-31T13:33:13;6.57;;;1.40;;
51949;SDS011;37974;53.218;6.640;2023-07-31T13:35:38;6.78;;;1.45;;
51949;SDS011;37974;53.218;6.640;2023-07-31T13:38:04;7.78;;;1.63;;
51949;SDS011;37974;53.218;6.640;2023-07-31T13:40:30;8.65;;;1.63;;
51949;SDS011;37974;53.218;6.640;2023-07-31T13:42:56;9.60;;;1.63;;
51949;SDS011;37974;53.218;6.640;2023-07-31T13:45:22;10.63;;;1.55;;
51949;SDS011;37974;53.218;6.640;2023-07-31T13:47:49;9.10;;;1.60;;
51949;SDS011;37974;53.218;6.640;2023-07-31T13:50:15;9.55;;;1.88;;
51949;SDS011;37974;53.218;6.640;2023-07-31T13:52:41;8.82;;;1.90;;
51949;SDS011;37974;53.218;6.640;2023-07-31T13:55:07;9.32;;;1.98;;
51949;SDS011;37974;53.218;6.640;2023-07-31T13:57:33;6.45;;;1.63;;
51949;SDS011;37974;53.218;6.640;2023-07-31T13:59:59;8.15;;;2.00;;
51949;SDS011;37974;53.218;6.640;2023-07-31T14:02:25;8.98;;;1.80;;
51949;SDS011;37974;53.218;6.640;2023-07-31T14:04:51;14.18;;;2.58;;
51949;SDS011;37974;53.218;6.640;2023-07-31T14:07:16;8.77;;;1.80;;
51949;SDS011;37974;53.218;6.640;2023-07-31T14:09:42;8.50;;;2.22;;
51949;SDS011;37974;53.218;6.640;2023-07-31T14:12:08;10.15;;;2.08;;
51949;SDS011;37974;53.218;6.640;2023-07-31T14:14:34;7.72;;;2.28;;
51949;SDS011;37974;53.218;6.640;2023-07-31T14:17:00;9.13;;;2.03;;
51949;SDS011;37974;53.218;6.640;2023-07-31T14:19:25;9.18;;;2.15;;
51949;SDS011;37974;53.218;6.640;2023-07-31T14:21:51;9.93;;;3.00;;
51949;SDS011;37974;53.218;6.640;2023-07-31T14:24:17;10.45;;;2.05;;
51949;SDS011;37974;53.218;6.640;2023-07-31T14:26:43;9.80;;;2.25;;
51949;SDS011;37974;53.218;6.640;2023-07-31T14:29:08;8.82;;;2.10;;
51949;SDS011;37974;53.218;6.640;2023-07-31T14:31:34;5.97;;;1.83;;
51949;SDS011;37974;53.218;6.640;2023-07-31T14:34:00;10.75;;;2.13;;
51949;SDS011;37974;53.218;6.640;2023-07-31T14:36:26;11.60;;;2.30;;
51949;SDS011;37974;53.218;6.640;2023-07-31T14:38:52;10.48;;;2.47;;
51949;SDS011;37974;53.218;6.640;2023-07-31T14:41:27;10.02;;;2.25;;
51949;SDS011;37974;53.218;6.640;2023-07-31T14:43:52;10.73;;;2.95;;
51949;SDS011;37974;53.218;6.640;2023-07-31T14:46:19;9.02;;;2.28;;
51949;SDS011;37974;53.218;6.640;2023-07-31T14:48:49;9.73;;;2.28;;
51949;SDS011;37974;53.218;6.640;2023-07-31T14:51:40;8.52;;;2.35;;
51949;SDS011;37974;53.218;6.640;2023-07-31T14:54:09;9.25;;;2.10;;
51949;SDS011;37974;53.218;6.640;2023-07-31T14:56:35;11.27;;;2.25;;
51949;SDS011;37974;53.218;6.640;2023-07-31T14:59:00;20.05;;;3.92;;
51949;SDS011;37974;53.218;6.640;2023-07-31T15:01:26;10.23;;;2.47;;
51949;SDS011;37974;53.218;6.640;2023-07-31T15:03:53;9.23;;;2.75;;
51949;SDS011;37974;53.218;6.640;2023-07-31T15:06:19;8.70;;;2.97;;